• Join FlightAware (Why Join?)
  • Login
  • US Flag 
09:12PM EDT


 

Airport Tracker/Info


-or-


 

Live Flight TrackerFlight Track Log ✈ N455AA ✈ 02-Aug-2012 ✈ KDFW - KDCA

Flight Track Log - Related Links

Times and Time Zones

All times are in EDT time to prevent confusion due to time zone crossing. See the N455AA flight status page for this flight to view local times or setup timezone preferences in your user account.

Time Position Orientation Groundspeed Altitude Reporting Facility
EDT Latitude Longitude Course Direction KTS MPH feet Rate Location/Type
02:11PM 32.7896 -96.9865 337° Northwest  Level FlightAware Approximate
02:11PM 32.8783 -97.0311 178° South 171 197 1,500  Level FAA TRACON SMA TRACON (SMA)
02:11PM 32.8589 -97.0303 161° South 180 207 2,100 1,440 Climbing FAA TRACON SMA TRACON (SMA)
02:12PM 32.8422 -97.0236 154° Southeast 203 234 2,500 1,680 Climbing FAA TRACON SMA TRACON (SMA)
02:12PM 32.8242 -97.0131 157° South 225 259 3,200 1,860 Climbing FAA TRACON SMA TRACON (SMA)
02:12PM 32.8053 -97.0033 154° Southeast 239 275 3,700 2,160 Climbing FAA TRACON SMA TRACON (SMA)
02:13PM 32.7808 -96.9889 121° Southeast 258 297 4,600 2,580 Climbing FAA TRACON SMA TRACON (SMA)
02:13PM 32.7692 -96.9661 105° East 270 311 5,400 2,520 Climbing FAA TRACON SMA TRACON (SMA)
02:13PM 32.7633 -96.9397 89° East 270 311 6,300 2,340 Climbing FAA TRACON SMA TRACON (SMA)
02:14PM 32.7639 -96.9042 86° East 280 322 7,000 2,160 Climbing FAA TRACON SMA TRACON (SMA)
02:14PM 32.7656 -96.8742 85° East 291 335 7,800 2,760 Climbing FAA TRACON SMA TRACON (SMA)
02:14PM 32.7681 -96.8364 72° East 299 344 8,900 2,820 Climbing FAA TRACON SMA TRACON (SMA)
02:15PM 32.7764 -96.8067 63° Northeast 307 353 9,700 2,520 Climbing FAA TRACON SMA TRACON (SMA)
02:15PM 32.7881 -96.7789 62° Northeast 307 353 10,500 1,800 Climbing FAA TRACON SMA TRACON (SMA)
02:15PM 32.8011 -96.7503 63° Northeast 313 360 10,900 1,020 Climbing FAA TRACON SMA TRACON (SMA)
02:16PM 32.8178 -96.7117 65° Northeast 334 384 11,200 1,140 Climbing FAA TRACON SMA TRACON (SMA)
02:16PM 32.8311 -96.6778 66° East 356 410 11,700 1,800 Climbing FAA TRACON SMA TRACON (SMA)
02:16PM 32.8442 -96.6431 64° Northeast 372 428 12,400 2,520 Climbing FAA TRACON SMA TRACON (SMA)
02:17PM 32.8622 -96.5994 65° Northeast 379 436 13,400 2,460 Climbing FAA TRACON SMA TRACON (SMA)
02:17PM 32.8761 -96.5642 63° Northeast 383 441 14,100 2,580 Climbing FAA TRACON SMA TRACON (SMA)
02:17PM 32.8947 -96.5206 64° Northeast 385 443 15,100 2,460 Climbing FAA TRACON SMA TRACON (SMA)
02:18PM 32.9094 -96.4844 62° Northeast 390 449 15,700 1,920 Climbing FAA TRACON SMA TRACON (SMA)
02:18PM 32.9253 -96.4486 64° Northeast 396 456 16,400 2,100 Climbing FAA TRACON SMA TRACON (SMA)
02:18PM 32.9403 -96.4117 64° Northeast 399 459 17,100 2,220 Climbing FAA TRACON SMA TRACON (SMA)
02:19PM 32.9586 -96.3658 68° East 402 463 17,900 2,460 Climbing FAA TRACON SMA TRACON (SMA)
02:19PM 32.9717 -96.3275 77° East 404 465 18,800 2,460 Climbing FAA TRACON SMA TRACON (SMA)
02:19PM 32.9817 -96.2769 81° East 407 468 19,600 2,220 Climbing FAA TRACON SMA TRACON (SMA)
02:20PM 32.9872 -96.2358 80° East 409 471 20,300 1,980 Climbing FAA TRACON SMA TRACON (SMA)
02:20PM 32.9944 -96.1847 80° East 409 471 21,000 1,560 Climbing FAA TRACON SMA TRACON (SMA)
02:20PM 33.0006 -96.1431 81° East 412 474 21,400 1,260 Climbing FAA TRACON SMA TRACON (SMA)
02:21PM 33.0064 -96.1011 80° East 418 481 21,800 1,200 Climbing FAA TRACON SMA TRACON (SMA)
02:21PM 33.0125 -96.0581 78° East 424 488 22,200 1,380 Climbing FAA TRACON SMA TRACON (SMA)
02:21PM 33.0217 -96.0044 80° East 429 494 22,800 1,680 Climbing FAA TRACON SMA TRACON (SMA)
02:22PM 33.0278 -95.9614 80° East 432 497 23,300 1,380 Climbing FAA TRACON SMA TRACON (SMA)
02:22PM 33.0342 -95.9172 80° East 437 503 23,700 1,500 Climbing FAA TRACON SMA TRACON (SMA)
02:22PM 33.0419 -95.8622 83° East 439 505 24,300 1,260 Climbing FAA TRACON SMA TRACON (SMA)
02:23PM 33.0522 -95.7578 83° East 435 501 25,200 1,320 Climbing Fort Worth Center
02:24PM 33.0686 -95.5989 73° East 448 516 26,800 1,320 Climbing Fort Worth Center
02:25PM 33.1061 -95.4542 70° East 448 516 27,900 1,020 Climbing Fort Worth Center
02:26PM 33.1497 -95.3069 69° East 456 525 28,900 1,200 Climbing Fort Worth Center
02:27PM 33.1953 -95.1644 71° East 462 532 30,400 1,440 Climbing Fort Worth Center
02:28PM 33.2386 -95.0167 70° East 467 537 31,800 1,140 Climbing Fort Worth Center
02:29PM 33.2817 -94.8739 71° East 462 532 32,700 600 Climbing Fort Worth Center
02:30PM 33.3167 -94.7486 70° East 457 526 33,000 60 Climbing Fort Worth Center
02:32PM 33.4042 -94.4600 70° East 451 519 33,000  Level Fort Worth Center
02:33PM 33.4467 -94.3167 71° East 451 519 33,000  Level Fort Worth Center
02:34PM 33.4889 -94.1731 68° East 451 519 33,000  Level Fort Worth Center
02:35PM 33.5372 -94.0292 65° Northeast 451 519 33,000  Level Fort Worth Center
02:36PM 33.5917 -93.8875 66° East 456 525 33,000  Level Fort Worth Center
02:38PM 33.7186 -93.5514 65° Northeast 463 533 33,000  Level Memphis Center
02:39PM 33.7700 -93.4158 64° Northeast 452 520 33,000  Level Memphis Center
02:40PM 33.8256 -93.2778 66° East 452 520 33,000  Level Memphis Center
02:41PM 33.8769 -93.1369 65° Northeast 452 520 33,000  Level Memphis Center
02:42PM 33.9297 -93.0008 66° East 452 520 33,000  Level Memphis Center
02:43PM 33.9828 -92.8597 66° East 458 527 33,000  Level Memphis Center
02:44PM 34.0356 -92.7183 67° East 458 527 33,000  Level Memphis Center
02:45PM 34.0842 -92.5792 66° East 458 527 33,000  Level Memphis Center
02:46PM 34.1367 -92.4350 65° Northeast 458 527 33,000  Level Memphis Center
02:47PM 34.1911 -92.2931 67° East 458 527 33,000  Level Memphis Center
02:48PM 34.2414 -92.1511 65° Northeast 458 527 33,000  Level Memphis Center
02:49PM 34.2953 -92.0089 66° East 458 527 33,000  Level Memphis Center
02:50PM 34.3494 -91.8642 67° East 458 527 33,000  Level Memphis Center
02:51PM 34.3969 -91.7264 64° Northeast 453 521 33,000  Level Memphis Center
02:52PM 34.4525 -91.5889 68° East 453 521 33,000  Level Memphis Center
02:53PM 34.5019 -91.4433 67° East 453 521 33,000  Level Memphis Center
02:54PM 34.5467 -91.3178 65° Northeast 453 521 33,000  Level Memphis Center
02:55PM 34.6000 -91.1797 68° East 452 520 33,000  Level Memphis Center
02:56PM 34.6489 -91.0336 66° East 458 527 33,000  Level Memphis Center
02:57PM 34.6994 -90.8928 67° East 453 521 33,000  Level Memphis Center
02:58PM 34.7481 -90.7539 67° East 453 521 33,000  Level Memphis Center
02:59PM 34.7983 -90.6125 67° East 448 516 33,000  Level Memphis Center
03:00PM 34.8531 -90.4583 67° East 453 521 33,000  Level Memphis Center
03:01PM 34.9031 -90.3167 67° East 453 521 33,000  Level Memphis Center
03:02PM 34.9531 -90.1722 66° East 458 527 33,000  Level Memphis Center
03:03PM 35.0047 -90.0300 67° East 453 521 33,000  Level Memphis Center
03:04PM 35.0564 -89.8828 66° East 461 531 33,000  Level Memphis Center
03:05PM 35.1019 -89.7556 67° East 461 531 33,000  Level Memphis Center
03:06PM 35.1511 -89.6106 67° East 461 531 33,000  Level Memphis Center
03:07PM 35.2022 -89.4650 66° East 455 524 33,000  Level Memphis Center
03:08PM 35.2533 -89.3222 68° East 455 524 33,000  Level Memphis Center
03:09PM 35.3061 -89.1639 67° East 455 524 33,000  Level Memphis Center
03:10PM 35.3567 -89.0206 66° East 455 524 33,000  Level Memphis Center
03:11PM 35.4075 -88.8822 68° East 450 518 33,000  Level Memphis Center
03:12PM 35.4494 -88.7514 68° East 450 518 33,000  Level Memphis Center
03:13PM 35.4978 -88.6075 67° East 450 518 33,000  Level Memphis Center
03:14PM 35.5478 -88.4636 68° East 450 518 33,000  Level Memphis Center
03:15PM 35.6014 -88.3017 67° East 457 526 33,000  Level Memphis Center
03:16PM 35.6511 -88.1572 68° East 457 526 33,000  Level Memphis Center
03:17PM 35.6944 -88.0233 68° East 436 502 33,000  Level Memphis Center
03:18PM 35.7417 -87.8761 67° East 442 509 33,000  Level Memphis Center
03:19PM 35.7908 -87.7339 68° East 447 514 33,000  Level Memphis Center
03:20PM 35.8378 -87.5914 68° East 447 514 33,000  Level Memphis Center
03:21PM 35.8844 -87.4464 66° East 447 514 33,000  Level Memphis Center
03:22PM 35.9294 -87.3192 68° East 447 514 33,000  Level Memphis Center
03:23PM 35.9758 -87.1764 69° East 447 514 33,000  Level Memphis Center
03:24PM 36.0203 -87.0361 69° East 447 514 33,000  Level Memphis Center
03:25PM 36.0664 -86.8906 69° East 442 509 33,000  Level Memphis Center
03:26PM 36.1122 -86.7447 68° East 442 509 33,000  Level Memphis Center
03:27PM 36.1600 -86.6011 67° East 449 517 33,000  Level Memphis Center
03:28PM 36.2078 -86.4600 68° East 444 511 33,000  Level Memphis Center
03:29PM 36.2533 -86.3164 67° East 439 505 33,000  Level Memphis Center
03:30PM 36.3008 -86.1775 68° East 439 505 33,000  Level Memphis Center
03:32PM 36.3792 -85.9325 69° East 441 507 33,000  Level Indianapolis Center
03:33PM 36.4217 -85.7972 69° East 448 516 33,000  Level Indianapolis Center
03:34PM 36.4658 -85.6539 68° East 435 501 33,000  Level Indianapolis Center
03:35PM 36.5122 -85.5106 69° East 435 501 33,000  Level Indianapolis Center
03:36PM 36.5561 -85.3694 68° East 435 501 33,000  Level Indianapolis Center
03:37PM 36.6022 -85.2281 69° East 435 501 33,000  Level Indianapolis Center
03:38PM 36.6478 -85.0817 70° East 440 506 33,000  Level Indianapolis Center
03:39PM 36.6894 -84.9400 69° East 440 506 33,000  Level Indianapolis Center
03:40PM 36.7347 -84.7958 70° East 440 506 33,000  Level Indianapolis Center
03:41PM 36.7778 -84.6511 70° East 440 506 33,000  Level Indianapolis Center
03:42PM 36.8189 -84.5092 70° East 440 506 33,000  Level Indianapolis Center
03:43PM 36.8572 -84.3797 69° East 440 506 33,000  Level Indianapolis Center
03:44PM 36.9000 -84.2375 70° East 440 506 33,000  Level Indianapolis Center
03:45PM 36.9425 -84.0922 69° East 445 512 33,000  Level Indianapolis Center
03:46PM 36.9867 -83.9497 69° East 445 512 33,000  Level Indianapolis Center
03:47PM 37.0308 -83.8042 70° East 445 512 33,000  Level Indianapolis Center
03:48PM 37.0728 -83.6558 69° East 445 512 33,000  Level Indianapolis Center
03:49PM 37.1147 -83.5153 69° East 440 506 33,000  Level Indianapolis Center
03:50PM 37.1583 -83.3694 70° East 440 506 33,000  Level Indianapolis Center
03:51PM 37.1997 -83.2258 70° East 434 499 33,000  Level Indianapolis Center
03:52PM 37.2450 -83.0692 71° East 434 499 33,000  Level Indianapolis Center
03:53PM 37.2861 -82.9228 70° East 434 499 33,000  Level Indianapolis Center
03:54PM 37.3269 -82.7814 70° East 434 499 33,000  Level Indianapolis Center
03:55PM 37.3758 -82.6108 71° East 434 499 33,000  Level Indianapolis Center
03:56PM 37.4161 -82.4639 71° East 434 499 33,000  Level Indianapolis Center
03:57PM 37.4544 -82.3222 70° East 434 499 33,000  Level Indianapolis Center
03:58PM 37.4967 -82.1747 71° East 429 494 33,000  Level Indianapolis Center
03:59PM 37.5367 -82.0300 72° East 429 494 33,000  Level Indianapolis Center
04:00PM 37.5742 -81.8878 71° East 429 494 33,000  Level Indianapolis Center
04:02PM 37.6139 -81.7428 71° East 429 494 33,000  Level Indianapolis Center
04:03PM 37.6611 -81.5658 71° East 435 501 33,000  Level Indianapolis Center
04:04PM 37.6983 -81.4283 71° East 424 488 33,000  Level Indianapolis Center
04:05PM 37.7372 -81.2828 69° East 424 488 33,000  Level Indianapolis Center
04:06PM 37.7947 -81.0925 66° East 445 512 33,000  Level Washington Center
04:07PM 37.8428 -80.9539 66° East 439 505 33,000  Level Washington Center
04:08PM 37.8906 -80.8153 65° Northeast 431 496 33,000  Level Washington Center
04:09PM 37.9425 -80.6739 65° Northeast 431 496 33,000  Level Washington Center
04:10PM 37.9989 -80.5197 66° East 437 503 33,000  Level Washington Center
04:11PM 38.0464 -80.3831 65° Northeast 432 497 33,000  Level Washington Center
04:12PM 38.0978 -80.2411 66° East 432 497 33,000  Level Washington Center
04:13PM 38.1469 -80.1017 66° East 432 497 33,000  Level Washington Center
04:14PM 38.1911 -79.9747 65° Northeast 432 497 33,000  Level Washington Center
04:15PM 38.2422 -79.8350 67° East 432 497 33,000 -300 Level Washington Center
04:16PM 38.2908 -79.6922 66° East 432 497 32,400 -1,200 Descending Washington Center
04:17PM 38.3417 -79.5494 56° Northeast 432 497 30,600 -2,040 Descending Washington Center
04:18PM 38.4147 -79.4128 61° Northeast 425 489 28,400 -2,460 Descending Washington Center
04:19PM 38.4711 -79.2831 73° East 420 483 25,800 -2,340 Descending Washington Center
04:20PM 38.5044 -79.1389 74° East 414 476 23,800 -1,980 Descending Washington Center
04:21PM 38.5358 -78.9944 72° East 414 476 21,900 -1,980 Descending Washington Center
04:22PM 38.5686 -78.8631 73° East 402 463 19,900 -2,100 Descending Washington Center
04:23PM 38.5994 -78.7317 72° East 392 451 17,700 -2,040 Descending Washington Center
04:24PM 38.6294 -78.6158 73° East 381 438 15,800 -1,380 Descending Washington Center
04:25PM 38.6597 -78.4897 73° East 376 433 15,000 -420 Descending Washington Center
04:26PM 38.6897 -78.3631 70° East 376 433 15,000  Level Washington Center
04:27PM 38.7258 -78.2367 75° East 371 427 15,000  Level Washington Center
04:28PM 38.7514 -78.1125 57° Northeast 371 427 15,000 -660 Level Washington Center
04:29PM 38.8081 -78.0000 60° Northeast 366 421 13,800 -1,020 Descending Washington Center
04:30PM 38.8603 -77.8844 64° Northeast 366 421 13,000 -660 Descending Washington Center
04:31PM 38.9086 -77.7578 86° East 361 415 12,500 -840 Descending Washington Center
04:32PM 38.9167 -77.6167 80° East 326 375 11,200 -1,140 Descending Potomac TRACON
04:33PM 38.9333 -77.5000 100° East 319 367 10,100 -1,140 Descending Potomac TRACON
04:34PM 38.9167 -77.3833 102° East 312 359 9,000 -1,140 Descending Potomac TRACON
04:35PM 38.9000 -77.2833 102° East 298 343 7,900 -1,260 Descending Potomac TRACON
04:36PM 38.8833 -77.1833 134° Southeast 288 331 6,500 -1,320 Descending Potomac TRACON
04:37PM 38.8333 -77.1167 180° South 286 329 5,300 -1,560 Descending Potomac TRACON
04:38PM 38.7667 -77.1167 180° South 269 310 3,400 -1,920 Descending Potomac TRACON